Danburg, Georgia
Current Conditions -  °F | °C
As of 5:35 PM on Tuesday 27 Jan 2015 (Local Time) from KIIY Reporting Station
Clear Clear  
Wind Chill: 50°   Ceiling: Unl
Heat Index: 50°   Visibility: 10mi
Dew Point: 32°   Wind: 16mph
Humidity: 50%   Direction: 280°W
Pressure: 29.94"   Gusts: 20mph
Location:  33.8952°N, 82.6905°W
Report Text: KIIY 272235Z AUTO 28014G17KT 10SM CLR 10/00 A2994 RMK AO2
Loading
Personal Weather Stations






























Interactive Weather Map New forecast layout! Learn more

10-Day Weather Forecast

Advertisements
Track Severe Weather on mobile